Time;durP1;ratioP1;P1;durP2;ratioP2;P2;SDS_P1;SDS_P2;PMS_P1;PMS_P2;Temp;Humidity;BMP_temperature;BMP_pressure;BME280_temperature;BME280_humidity;BME280_pressure;Samples;Min_cycle;Max_cycle;Signal;HPM_P1;HPM_P2
2023/10/03 00:00:49;;;;;;;25.48;16.38;;;;;;;20.38;60.33;101782.72;6035763;23;20418;-81
2023/10/03 00:03:17;;;;;;;24.30;16.55;;;;;;;20.89;60.00;101859.66;6037933;23;20054;-80
2023/10/03 00:05:46;;;;;;;23.95;17.88;;;;;;;21.04;59.89;101892.16;6042187;23;20354;-80
2023/10/03 00:08:13;;;;;;;26.98;16.13;;;;;;;21.12;59.62;101907.53;6055383;23;20018;-80
2023/10/03 00:10:40;;;;;;;25.75;16.08;;;;;;;21.13;59.73;101914.59;6031083;23;20371;-80
2023/10/03 00:13:08;;;;;;;24.92;16.00;;;;;;;21.00;59.61;101898.94;6041026;23;20421;-81
2023/10/03 00:15:44;;;;;;;30.63;16.63;;;;;;;20.92;59.64;101882.75;6036732;23;20097;-81
2023/10/03 00:18:13;;;;;;;27.30;14.63;;;;;;;20.69;59.61;101848.44;6024065;23;20041;-79
2023/10/03 00:20:41;;;;;;;34.35;16.52;;;;;;;20.49;59.80;101815.56;6026044;23;20053;-81
2023/10/03 00:23:18;;;;;;;33.47;17.27;;;;;;;20.11;59.34;101752.44;6005859;23;20361;-81
2023/10/03 00:25:53;;;;;;;26.38;15.13;;;;;;;20.35;59.82;101797.41;6000766;23;20018;-82
2023/10/03 00:28:30;;;;;;;24.20;15.73;;;;;;;20.68;59.41;101849.47;6021021;23;20091;-81
2023/10/03 00:31:13;;;;;;;24.83;16.35;;;;;;;20.94;59.34;101898.78;6018289;23;20058;-82
2023/10/03 00:33:43;;;;;;;27.50;15.98;;;;;;;20.87;59.71;101902.16;6040004;23;20019;-80
2023/10/03 00:36:25;;;;;;;25.17;16.05;;;;;;;20.50;59.66;101838.00;6014072;23;20038;-83
2023/10/03 00:39:10;;;;;;;22.90;15.15;;;;;;;20.87;59.52;101899.47;5999286;23;20461;-82
2023/10/03 00:41:40;;;;;;;22.40;15.02;;;;;;;20.73;59.82;101872.34;6031282;23;20034;-81
2023/10/03 00:44:10;;;;;;;21.30;15.73;;;;;;;20.17;59.66;101773.34;6044641;23;20465;-81
2023/10/03 00:46:37;;;;;;;28.80;16.08;;;;;;;20.93;59.59;101887.16;6033235;23;20050;-80
2023/10/03 00:49:09;;;;;;;24.20;16.92;;;;;;;20.79;59.73;101867.13;5999392;23;20348;-81
2023/10/03 00:51:40;;;;;;;21.10;15.88;;;;;;;20.90;59.96;101885.66;5987413;23;20222;-82
2023/10/03 00:54:10;;;;;;;24.20;16.52;;;;;;;20.82;59.91;101880.25;6042254;23;20101;-82
2023/10/03 00:56:37;;;;;;;22.40;16.15;;;;;;;20.73;60.19;101870.53;6060849;23;20108;-82
2023/10/03 00:59:08;;;;;;;22.42;16.00;;;;;;;20.80;60.21;101878.75;6043224;23;20117;-81
2023/10/03 01:01:36;;;;;;;19.97;14.23;;;;;;;20.68;59.95;101870.19;6032728;23;20420;-80
2023/10/03 01:04:18;;;;;;;24.70;15.85;;;;;;;20.62;60.05;101878.97;6037323;23;20599;-82
2023/10/03 01:06:51;;;;;;;21.42;16.38;;;;;;;20.69;60.56;101891.59;6009559;23;20442;-81
2023/10/03 01:09:35;;;;;;;30.75;17.27;;;;;;;20.67;60.49;101899.03;6003351;23;20445;-81
2023/10/03 01:12:15;;;;;;;27.08;17.25;;;;;;;20.52;61.02;101879.13;5987436;23;20019;-82
2023/10/03 01:14:59;;;;;;;25.08;17.35;;;;;;;20.41;61.65;101865.97;5984064;23;20154;-82
2023/10/03 01:17:30;;;;;;;25.50;17.50;;;;;;;20.33;61.33;101847.97;6017271;23;20724;-82
2023/10/03 01:20:08;;;;;;;23.33;17.38;;;;;;;20.57;61.42;101892.97;6058276;23;20029;-82
2023/10/03 01:22:39;;;;;;;23.58;17.08;;;;;;;20.42;61.33;101857.72;6041628;23;20101;-84
2023/10/03 01:25:11;;;;;;;22.93;15.63;;;;;;;20.53;61.09;101885.34;6036233;23;20117;-78
2023/10/03 01:27:39;;;;;;;26.52;16.75;;;;;;;20.55;61.03;101886.91;6052628;23;20293;-81
2023/10/03 01:30:10;;;;;;;22.98;15.18;;;;;;;20.36;60.46;101858.41;6053019;23;20503;-82
2023/10/03 01:32:43;;;;;;;21.38;14.95;;;;;;;19.98;60.29;101795.28;6046507;23;20179;-80
2023/10/03 01:35:12;;;;;;;22.50;14.60;;;;;;;20.27;59.93;101849.50;6040629;23;20015;-81
2023/10/03 01:37:45;;;;;;;26.05;15.68;;;;;;;20.50;59.66;101873.06;6058311;23;20214;-81
2023/10/03 01:40:16;;;;;;;19.08;14.85;;;;;;;20.40;59.36;101853.53;6024693;23;20337;-78
2023/10/03 01:42:47;;;;;;;22.58;15.20;;;;;;;20.45;59.25;101862.78;6033201;23;20022;-83
2023/10/03 01:45:17;;;;;;;33.47;14.60;;;;;;;20.25;59.37;101835.34;6049714;23;20026;-79
2023/10/03 01:47:51;;;;;;;20.40;14.23;;;;;;;20.45;59.60;101853.84;6044398;23;20446;-81
2023/10/03 01:50:19;;;;;;;17.60;14.30;;;;;;;20.35;59.76;101831.63;6049962;23;20024;-80
2023/10/03 01:52:52;;;;;;;23.58;14.43;;;;;;;20.42;59.61;101846.94;6033408;23;20336;-82
2023/10/03 01:55:23;;;;;;;23.55;15.38;;;;;;;20.52;59.85;101864.81;6045486;23;20034;-81
2023/10/03 01:57:50;;;;;;;21.00;15.30;;;;;;;20.36;59.93;101842.22;6032881;23;20456;-80
2023/10/03 02:03:12;;;;;;;19.52;14.00;;;;;;;20.43;59.77;101850.47;6037115;23;20367;-81
2023/10/03 02:05:46;;;;;;;22.40;14.90;;;;;;;20.44;59.68;101857.56;6039119;23;20027;-82
2023/10/03 02:08:15;;;;;;;26.33;15.75;;;;;;;20.43;60.01;101855.88;6067059;23;20466;-80
2023/10/03 02:10:46;;;;;;;22.30;15.02;;;;;;;20.28;59.85;101836.84;6070694;23;20026;-80
2023/10/03 02:13:21;;;;;;;23.10;14.48;;;;;;;20.30;59.94;101840.22;6069708;23;20025;-80
2023/10/03 02:15:54;;;;;;;25.77;14.82;;;;;;;20.37;60.07;101849.31;6093874;23;20042;-80
2023/10/03 02:18:22;;;;;;;17.88;13.82;;;;;;;19.72;59.87;101738.84;6050417;23;20029;-81
2023/10/03 02:20:59;;;;;;;21.05;14.25;;;;;;;20.03;59.75;101784.81;6061626;23;20108;-81
2023/10/03 02:23:28;;;;;;;18.02;14.20;;;;;;;20.32;59.96;101829.28;6067198;23;20098;-80
2023/10/03 02:26:10;;;;;;;21.27;14.23;;;;;;;20.20;59.99;101810.75;6058987;23;20046;-82
2023/10/03 02:28:40;;;;;;;18.50;14.88;;;;;;;20.18;59.92;101801.97;6060029;23;20019;-80
2023/10/03 02:31:11;;;;;;;18.42;13.68;;;;;;;20.26;60.16;101820.81;6086401;23;20764;-81
2023/10/03 02:33:44;;;;;;;21.55;14.05;;;;;;;20.16;59.90;101809.38;6075362;23;20197;-81
2023/10/03 02:36:15;;;;;;;20.05;13.75;;;;;;;20.03;60.03;101790.22;6075437;23;20395;-81
2023/10/03 02:38:45;;;;;;;24.52;15.23;;;;;;;19.92;59.84;101774.38;6056092;23;20019;-81
2023/10/03 02:41:12;;;;;;;17.50;14.18;;;;;;;20.11;59.91;101805.53;6073917;23;20073;-81
2023/10/03 02:43:43;;;;;;;20.45;13.95;;;;;;;20.14;60.10;101816.78;6055668;23;20027;-82
2023/10/03 02:46:13;;;;;;;18.65;13.48;;;;;;;20.18;59.95;101818.16;6065799;23;20015;-81
2023/10/03 02:48:41;;;;;;;25.35;14.10;;;;;;;19.62;59.71;101730.91;6066490;23;20101;-81
2023/10/03 02:51:09;;;;;;;20.13;14.10;;;;;;;19.64;59.69;101728.91;6063673;23;20403;-80
2023/10/03 02:53:36;;;;;;;23.40;14.27;;;;;;;20.00;59.60;101790.53;6069030;23;20433;-81
2023/10/03 02:56:04;;;;;;;19.40;14.50;;;;;;;20.14;59.39;101810.56;6070676;23;20074;-81
2023/10/03 02:58:31;;;;;;;20.48;13.93;;;;;;;20.06;59.39;101798.78;6065177;23;20363;-82
2023/10/03 03:00:58;;;;;;;20.70;13.65;;;;;;;19.83;59.50;101771.69;6077107;23;20034;-81
2023/10/03 03:03:32;;;;;;;17.42;13.68;;;;;;;20.13;59.36;101815.13;6040257;23;20022;-81
2023/10/03 03:06:09;;;;;;;22.77;12.90;;;;;;;20.11;59.24;101814.44;6068273;23;20131;-81
2023/10/03 03:08:44;;;;;;;18.77;13.52;;;;;;;19.96;59.37;101790.03;6071600;23;20069;-80
2023/10/03 03:11:12;;;;;;;20.88;13.75;;;;;;;19.81;59.58;101771.00;6076110;23;20602;-80
2023/10/03 03:13:39;;;;;;;20.88;14.25;;;;;;;20.04;59.62;101805.34;6049264;23;20018;-81
2023/10/03 03:16:14;;;;;;;23.33;15.00;;;;;;;19.90;59.80;101779.09;6058663;23;20029;-82
2023/10/03 03:18:42;;;;;;;23.88;14.13;;;;;;;19.90;59.71;101781.78;6078903;23;20045;-81
2023/10/03 03:21:14;;;;;;;20.63;13.50;;;;;;;20.01;59.18;101794.91;6065931;23;20360;-82
2023/10/03 03:23:49;;;;;;;22.52;13.95;;;;;;;20.03;59.58;101792.91;6054766;23;20325;-82
2023/10/03 03:26:21;;;;;;;31.52;15.38;;;;;;;19.98;59.40;101787.19;6051277;23;20097;-80
2023/10/03 03:28:50;;;;;;;22.88;13.70;;;;;;;19.77;59.15;101745.41;6051379;23;20489;-82
2023/10/03 03:31:32;;;;;;;21.17;13.18;;;;;;;20.01;59.00;101797.63;6059649;23;20026;-82
2023/10/03 03:34:02;;;;;;;21.27;14.07;;;;;;;19.91;59.02;101773.53;6052359;23;20034;-82
2023/10/03 03:36:40;;;;;;;21.70;14.45;;;;;;;19.74;59.14;101742.22;6059508;23;20440;-81
2023/10/03 03:39:17;;;;;;;21.80;13.30;;;;;;;20.02;59.27;101780.41;6064312;23;20394;-81
2023/10/03 03:41:44;;;;;;;20.27;13.73;;;;;;;19.98;59.46;101785.31;6062855;23;20393;-81
2023/10/03 03:44:18;;;;;;;21.40;13.82;;;;;;;19.96;59.55;101789.19;6057880;23;20065;-80
2023/10/03 03:46:46;;;;;;;18.60;13.47;;;;;;;19.94;59.32;101785.84;6054933;23;20014;-81
2023/10/03 03:49:14;;;;;;;17.05;12.57;;;;;;;19.71;59.44;101751.50;6048686;23;20081;-80
2023/10/03 03:51:41;;;;;;;18.48;12.98;;;;;;;19.74;59.45;101758.41;6030982;23;20392;-82
2023/10/03 03:54:12;;;;;;;23.88;13.38;;;;;;;19.90;59.35;101788.00;6028468;23;20018;-80
2023/10/03 03:56:45;;;;;;;17.40;13.45;;;;;;;19.92;59.77;101775.22;6000341;23;20399;-81
2023/10/03 03:59:18;;;;;;;18.88;13.85;;;;;;;19.88;59.78;101775.72;6010756;23;20378;-82
2023/10/03 04:01:45;;;;;;;26.75;15.80;;;;;;;19.94;59.93;101761.56;6048409;23;20395;-80
2023/10/03 04:04:12;;;;;;;25.88;15.52;;;;;;;20.12;59.66;101770.28;6042668;23;20030;-79
2023/10/03 04:06:42;;;;;;;20.17;15.35;;;;;;;19.88;60.12;101725.38;6036324;23;20434;-81
2023/10/03 04:09:12;;;;;;;24.08;15.77;;;;;;;19.54;60.34;101669.81;6048356;23;20339;-80
2023/10/03 04:11:39;;;;;;;20.95;14.68;;;;;;;20.10;60.42;101766.94;6049797;23;20029;-81
2023/10/03 04:14:07;;;;;;;21.65;15.25;;;;;;;19.83;60.88;101727.72;6050086;23;20447;-82
2023/10/03 04:16:39;;;;;;;21.55;14.73;;;;;;;19.97;60.95;101758.53;6054907;23;20022;-82
2023/10/03 04:19:07;;;;;;;24.60;15.10;;;;;;;19.96;60.91;101755.00;6074540;23;20018;-81
2023/10/03 04:21:35;;;;;;;25.55;15.48;;;;;;;19.90;61.33;101746.75;6057212;23;20058;-82
2023/10/03 04:24:04;;;;;;;24.25;14.68;;;;;;;19.65;61.50;101720.63;6056378;23;20022;-81
2023/10/03 04:26:32;;;;;;;30.33;15.65;;;;;;;19.14;61.27;101646.41;6059385;23;20030;-82
2023/10/03 04:28:59;;;;;;;28.77;16.05;;;;;;;19.72;60.85;101712.75;6039691;23;20294;-80
2023/10/03 04:31:27;;;;;;;29.95;16.58;;;;;;;19.98;60.81;101744.06;6062647;23;20057;-82
2023/10/03 04:33:55;;;;;;;33.20;16.77;;;;;;;19.89;61.00;101742.38;6062511;23;20015;-80
2023/10/03 04:36:25;;;;;;;24.90;15.85;;;;;;;19.85;61.26;101748.13;6059601;23;20045;-81
2023/10/03 04:38:53;;;;;;;25.60;15.18;;;;;;;19.75;61.44;101747.44;6064865;23;20038;-82
2023/10/03 04:41:21;;;;;;;25.88;16.70;;;;;;;19.60;61.37;101730.22;6049060;23;20022;-82
2023/10/03 04:43:49;;;;;;;17.75;14.75;;;;;;;19.74;61.20;101764.63;6078904;23;20022;-82
2023/10/03 04:46:17;;;;;;;21.20;15.65;;;;;;;19.12;61.35;101664.56;6054617;23;20014;-82
2023/10/03 04:48:44;;;;;;;26.63;15.80;;;;;;;19.15;61.26;101654.34;6045095;23;20038;-80
2023/10/03 04:51:17;;;;;;;25.33;16.33;;;;;;;18.62;61.01;101537.22;6040835;23;20470;-81
2023/10/03 04:53:46;;;;;;;19.73;15.02;;;;;;;19.46;60.98;101675.19;6067173;23;20084;-81
2023/10/03 04:56:13;;;;;;;24.27;16.92;;;;;;;19.66;61.59;101721.50;6045806;23;20022;-80
2023/10/03 04:58:41;;;;;;;27.15;16.33;;;;;;;19.91;61.25;101753.84;6057960;23;20022;-81
2023/10/03 05:01:08;;;;;;;21.98;15.00;;;;;;;19.88;61.11;101752.31;6041171;23;20025;-82
2023/10/03 05:03:38;;;;;;;54.20;40.75;;;;;;;19.88;61.77;101756.84;6002264;23;1295372;-82
2023/10/03 05:06:11;;;;;;;27.60;18.52;;;;;;;19.35;61.45;101676.38;6043980;23;20121;-82
2023/10/03 05:08:42;;;;;;;22.15;15.65;;;;;;;19.78;61.50;101752.50;6056150;23;20461;-80
2023/10/03 05:11:13;;;;;;;25.52;16.73;;;;;;;19.74;61.62;101756.53;6048767;23;20319;-81
2023/10/03 05:13:45;;;;;;;22.60;14.73;;;;;;;19.34;61.29;101696.22;6049318;23;20430;-80
2023/10/03 05:16:17;;;;;;;19.90;14.60;;;;;;;19.57;61.65;101746.75;6027888;23;20093;-80
2023/10/03 05:18:45;;;;;;;21.75;14.13;;;;;;;18.98;61.24;101658.84;6040251;23;20312;-80
2023/10/03 05:21:13;;;;;;;24.40;16.85;;;;;;;19.62;60.94;101757.84;6033541;23;20028;-81
2023/10/03 05:23:41;;;;;;;27.90;15.60;;;;;;;19.70;60.97;101773.19;6058777;23;20270;-81
2023/10/03 05:26:08;;;;;;;20.73;14.77;;;;;;;19.67;61.15;101771.66;6057673;23;20010;-82
2023/10/03 05:28:39;;;;;;;18.17;14.50;;;;;;;19.46;60.69;101739.81;6058587;23;20046;-82
2023/10/03 05:31:12;;;;;;;21.42;14.25;;;;;;;19.70;60.36;101782.13;6032314;23;20085;-82
2023/10/03 05:33:40;;;;;;;29.40;15.27;;;;;;;19.59;60.78;101767.09;6043857;23;20018;-81
2023/10/03 05:36:13;;;;;;;23.80;14.48;;;;;;;19.39;60.91;101739.66;6040374;23;20042;-82
2023/10/03 05:38:42;;;;;;;29.20;14.48;;;;;;;19.73;60.64;101787.16;6039906;23;20485;-83
2023/10/03 05:41:23;;;;;;;26.02;15.77;;;;;;;19.72;60.60;101779.28;6037082;23;20445;-81
2023/10/03 05:43:58;;;;;;;28.67;15.48;;;;;;;19.53;59.85;101748.91;5991016;23;20045;-81
2023/10/03 05:46:32;;;;;;;30.50;15.30;;;;;;;19.87;59.66;101798.28;6007532;23;20454;-81
2023/10/03 05:49:09;;;;;;;29.27;15.48;;;;;;;19.80;59.59;101798.94;6027757;23;20024;-82
2023/10/03 05:51:44;;;;;;;28.52;16.40;;;;;;;19.75;59.83;101798.63;6014069;23;20042;-82
2023/10/03 05:54:17;;;;;;;23.73;15.20;;;;;;;19.59;60.30;101777.03;6013509;23;20014;-82
2023/10/03 05:56:52;;;;;;;24.05;17.23;;;;;;;19.78;59.96;101802.81;6003944;23;20426;-82
2023/10/03 05:59:20;;;;;;;25.83;17.50;;;;;;;19.65;60.24;101806.81;6021005;23;20145;-80
2023/10/03 06:01:50;;;;;;;24.98;17.83;;;;;;;18.99;60.51;101695.50;6020182;23;20252;-82
2023/10/03 06:04:25;;;;;;;29.00;18.95;;;;;;;19.65;60.51;101806.00;6037793;23;20151;-82
2023/10/03 06:06:54;;;;;;;25.60;18.33;;;;;;;19.58;60.68;101813.06;6014057;23;20365;-82
2023/10/03 06:09:23;;;;;;;26.77;17.98;;;;;;;19.30;60.56;101764.88;6037920;23;20212;-83
2023/10/03 06:12:04;;;;;;;25.88;19.23;;;;;;;19.13;60.69;101747.84;6017092;23;20433;-82
2023/10/03 06:14:31;;;;;;;32.25;18.55;;;;;;;19.43;61.13;101816.38;6031983;23;20332;-82
2023/10/03 06:16:58;;;;;;;32.70;17.98;;;;;;;19.48;61.77;101823.16;6051951;23;20304;-82
2023/10/03 06:19:26;;;;;;;27.25;18.75;;;;;;;19.31;61.56;101788.09;6052400;23;20442;-81
2023/10/03 06:21:53;;;;;;;28.85;15.15;;;;;;;19.63;60.06;101822.31;6046404;23;20374;-83
2023/10/03 06:24:26;;;;;;;19.98;12.57;;;;;;;19.70;58.96;101810.91;6060518;23;20023;-81
2023/10/03 06:26:59;;;;;;;26.85;13.18;;;;;;;19.16;58.85;101730.53;6026708;23;20278;-81
2023/10/03 06:29:30;;;;;;;23.73;13.82;;;;;;;19.76;58.31;101819.19;6049397;23;20026;-80
2023/10/03 06:31:56;;;;;;;23.25;12.13;;;;;;;19.63;57.86;101791.84;6046632;23;20019;-81
2023/10/03 06:34:25;;;;;;;17.98;11.95;;;;;;;19.71;57.68;101789.22;6038560;23;20015;-80
2023/10/03 06:36:52;;;;;;;23.05;12.68;;;;;;;19.70;57.03;101776.72;6047642;23;20041;-79
2023/10/03 06:39:21;;;;;;;24.58;11.73;;;;;;;20.05;56.50;101836.72;6030618;23;20065;-80
2023/10/03 06:41:47;;;;;;;22.67;12.05;;;;;;;20.12;56.42;101836.84;6047745;23;20330;-77
2023/10/03 06:44:17;;;;;;;23.20;13.80;;;;;;;20.09;56.03;101808.38;6054648;23;20182;-78
2023/10/03 06:46:47;;;;;;;22.90;13.02;;;;;;;20.10;55.71;101814.59;6054801;23;20097;-77
2023/10/03 06:49:17;;;;;;;23.02;13.88;;;;;;;20.21;55.90;101825.91;6035866;23;20026;-79
2023/10/03 06:51:45;;;;;;;19.60;14.45;;;;;;;18.99;55.16;101601.34;6053090;23;20025;-78
2023/10/03 06:54:12;;;;;;;25.67;14.05;;;;;;;20.34;55.76;101822.69;6069840;23;20394;-78
2023/10/03 06:56:41;;;;;;;27.27;16.30;;;;;;;20.41;55.89;101844.41;6066147;23;20383;-79
2023/10/03 06:59:11;;;;;;;23.55;15.82;;;;;;;20.31;55.19;101806.84;6055544;23;20046;-79
2023/10/03 07:01:41;;;;;;;25.77;15.73;;;;;;;20.57;54.98;101836.31;6074201;23;20212;-78
2023/10/03 07:04:14;;;;;;;24.48;16.55;;;;;;;20.64;55.35;101848.09;6062179;23;20117;-81
2023/10/03 07:06:43;;;;;;;29.60;17.52;;;;;;;20.79;54.39;101837.44;6039911;23;20473;-80
2023/10/03 07:09:16;;;;;;;27.42;18.85;;;;;;;20.84;54.52;101850.41;6010387;23;20397;-81
2023/10/03 07:11:49;;;;;;;25.60;17.85;;;;;;;20.87;54.71;101844.66;5975974;23;20330;-80
2023/10/03 07:14:16;;;;;;;30.10;19.88;;;;;;;20.94;54.84;101842.94;6050016;23;20067;-80
2023/10/03 07:16:48;;;;;;;39.78;21.15;;;;;;;20.90;54.79;101838.94;6053998;23;20330;-81
2023/10/03 07:19:16;;;;;;;34.25;22.33;;;;;;;20.61;54.85;101769.38;6051740;23;20027;-83
2023/10/03 07:21:43;;;;;;;29.50;21.45;;;;;;;21.16;54.22;101845.91;6039708;23;20022;-80
2023/10/03 07:24:10;;;;;;;37.08;21.13;;;;;;;21.05;54.57;101823.69;6058593;23;20445;-77
2023/10/03 07:26:41;;;;;;;25.23;18.50;;;;;;;21.16;54.23;101840.50;6066599;23;20450;-79
2023/10/03 07:29:11;;;;;;;28.73;19.70;;;;;;;20.58;53.92;101738.19;6048834;23;20029;-81
2023/10/03 07:31:43;;;;;;;26.95;17.75;;;;;;;21.25;54.39;101844.84;6045769;23;20632;-81
2023/10/03 07:34:12;;;;;;;26.25;17.25;;;;;;;20.75;53.83;101754.31;6065359;23;20219;-80
2023/10/03 07:36:40;;;;;;;25.80;16.65;;;;;;;21.13;54.02;101818.22;6040794;23;20018;-81
2023/10/03 07:39:08;;;;;;;23.50;17.02;;;;;;;21.33;53.17;101824.03;6034103;23;20027;-80
2023/10/03 07:41:35;;;;;;;32.42;18.23;;;;;;;21.49;53.04;101839.34;6051415;23;20090;-81
2023/10/03 07:44:04;;;;;;;31.42;19.13;;;;;;;21.43;53.81;101829.22;6049268;23;20200;-81
2023/10/03 07:46:35;;;;;;;33.67;18.63;;;;;;;21.52;53.22;101836.25;6077896;23;20105;-78
2023/10/03 07:49:02;;;;;;;29.00;19.63;;;;;;;21.53;53.08;101827.16;6052066;23;20518;-80
2023/10/03 07:51:31;;;;;;;39.35;22.55;;;;;;;21.47;53.23;101816.22;6060673;23;20022;-81
2023/10/03 07:54:02;;;;;;;124.93;28.83;;;;;;;21.19;53.61;101778.03;6051914;23;20022;-80
2023/10/03 07:56:44;;;;;;;43.60;23.90;;;;;;;21.37;53.86;101796.69;6050169;23;20018;-80
2023/10/03 07:59:12;;;;;;;29.38;21.05;;;;;;;21.59;53.90;101832.88;6019146;23;20354;-81
2023/10/03 08:01:38;;;;;;;29.83;19.55;;;;;;;21.58;54.07;101826.63;6051092;23;20014;-80
2023/10/03 08:04:12;;;;;;;29.83;20.15;;;;;;;21.69;54.17;101838.88;6061058;23;20040;-81
2023/10/03 08:06:43;;;;;;;34.40;20.48;;;;;;;21.86;53.68;101829.59;6045769;23;20489;-78
2023/10/03 08:09:13;;;;;;;33.63;21.63;;;;;;;22.01;53.18;101832.34;6051653;23;20295;-80
2023/10/03 08:11:47;;;;;;;30.80;22.08;;;;;;;21.93;52.88;101819.75;6052642;23;20026;-82
2023/10/03 08:14:17;;;;;;;30.30;22.13;;;;;;;22.08;52.96;101832.47;6031655;23;20316;-82
2023/10/03 08:16:56;;;;;;;28.55;20.83;;;;;;;22.16;52.96;101843.22;6037223;23;20046;-81
2023/10/03 08:19:29;;;;;;;30.65;21.15;;;;;;;22.11;53.24;101837.50;6033822;23;20022;-81
2023/10/03 08:21:58;;;;;;;29.30;19.65;;;;;;;22.07;53.16;101830.81;6049299;23;20725;-81
2023/10/03 08:24:25;;;;;;;59.33;22.15;;;;;;;22.07;53.95;101841.63;6055328;23;20084;-82
2023/10/03 08:26:53;;;;;;;36.13;20.02;;;;;;;22.10;53.54;101830.44;6042550;23;20464;-82
2023/10/03 08:29:25;;;;;;;26.95;19.63;;;;;;;21.89;54.29;101796.78;6054021;23;20015;-81
2023/10/03 08:32:05;;;;;;;27.42;20.50;;;;;;;22.29;53.91;101839.94;6054598;23;20042;-82
2023/10/03 08:34:32;;;;;;;22.48;17.73;;;;;;;22.36;53.74;101841.72;6039374;23;20625;-83
2023/10/03 08:36:59;;;;;;;24.15;17.98;;;;;;;22.50;53.06;101823.81;6020630;23;20325;-80
2023/10/03 08:39:34;;;;;;;29.40;20.20;;;;;;;22.53;52.64;101830.72;6024615;23;20058;-79
2023/10/03 08:42:17;;;;;;;27.20;20.02;;;;;;;22.44;52.67;101794.78;6031015;23;20461;-82
2023/10/03 08:44:51;;;;;;;78.28;24.55;;;;;;;22.57;52.86;101821.19;6051589;23;20466;-81
2023/10/03 08:47:33;;;;;;;33.72;21.67;;;;;;;22.76;52.82;101838.75;6048042;23;20025;-81
2023/10/03 08:50:29;;;;;;;34.58;22.25;;;;;;;22.70;51.87;101807.88;6055265;23;20484;-81
2023/10/03 08:53:12;;;;;;;33.67;23.48;;;;;;;23.04;51.03;101839.78;6068568;23;20378;-80
2023/10/03 08:55:43;;;;;;;37.83;24.70;;;;;;;23.10;50.98;101838.19;6042942;23;20014;-81
2023/10/03 08:58:14;;;;;;;36.13;24.63;;;;;;;23.27;50.38;101844.22;6010494;23;20477;-80
2023/10/03 09:00:51;;;;;;;30.80;24.05;;;;;;;23.18;50.26;101824.56;6044055;23;20215;-79
2023/10/03 09:03:18;;;;;;;33.78;24.50;;;;;;;23.49;49.89;101853.22;6028525;23;20492;-82
2023/10/03 09:05:47;;;;;;;37.95;24.15;;;;;;;23.41;49.82;101828.97;6069391;23;20306;-80
2023/10/03 09:08:18;;;;;;;32.78;24.75;;;;;;;23.43;50.18;101819.63;6042005;23;20339;-80
2023/10/03 09:10:55;;;;;;;33.90;25.25;;;;;;;23.57;49.53;101820.59;6052352;23;20806;-80
2023/10/03 09:13:27;;;;;;;31.75;25.35;;;;;;;23.61;49.52;101813.75;6051278;23;20030;-78
2023/10/03 09:15:59;;;;;;;32.65;24.33;;;;;;;23.92;49.14;101837.00;6072793;23;20367;-78
2023/10/03 09:18:40;;;;;;;35.70;24.23;;;;;;;23.83;49.16;101784.78;6061793;23;20048;-81
2023/10/03 09:21:14;;;;;;;28.40;21.80;;;;;;;23.34;49.24;101692.59;6055940;23;20051;-80
2023/10/03 09:24:02;;;;;;;34.83;23.92;;;;;;;24.29;49.17;101826.88;6033307;23;20019;-79
2023/10/03 09:26:45;;;;;;;42.35;26.55;;;;;;;24.52;49.18;101842.94;6071880;23;20109;-79
2023/10/03 09:29:29;;;;;;;39.00;28.42;;;;;;;24.30;48.39;101764.28;6081869;23;20022;-79
2023/10/03 09:32:12;;;;;;;41.60;29.58;;;;;;;24.88;48.18;101828.28;6053769;23;20439;-81
2023/10/03 09:34:42;;;;;;;39.05;31.05;;;;;;;25.11;47.44;101838.88;6047894;23;20022;-78
2023/10/03 09:37:09;;;;;;;47.67;33.65;;;;;;;24.92;47.48;101784.22;6065865;23;20046;-78
2023/10/03 09:39:47;;;;;;;50.97;32.97;;;;;;;25.27;47.40;101827.69;6060502;23;20223;-80
2023/10/03 09:42:23;;;;;;;50.70;30.75;;;;;;;24.88;47.72;101744.09;6074447;23;20038;-78
2023/10/03 09:44:51;;;;;;;47.78;34.45;;;;;;;25.56;47.39;101820.22;6046427;23;20029;-80
2023/10/03 09:47:18;;;;;;;41.63;32.28;;;;;;;25.61;47.76;101823.16;6050313;23;20015;-80
2023/10/03 09:49:47;;;;;;;49.92;34.70;;;;;;;25.64;47.20;101806.41;6058816;23;20034;-79
2023/10/03 09:52:25;;;;;;;48.17;34.95;;;;;;;25.54;46.78;101765.22;6063509;23;20018;-79
2023/10/03 09:54:59;;;;;;;41.70;31.27;;;;;;;25.98;46.99;101821.75;6046198;23;20045;-78
2023/10/03 09:57:30;;;;;;;40.83;32.22;;;;;;;26.12;46.94;101817.16;6031517;23;20461;-78
2023/10/03 09:59:57;;;;;;;43.60;32.97;;;;;;;26.03;46.21;101768.59;6047886;23;20014;-76
2023/10/03 10:02:30;;;;;;;44.33;30.70;;;;;;;26.32;45.69;101797.22;6053896;23;20019;-78
2023/10/03 10:05:03;;;;;;;50.35;32.88;;;;;;;26.52;45.51;101795.28;6090542;23;20026;-78
2023/10/03 10:07:35;;;;;;;46.40;33.20;;;;;;;26.54;45.64;101787.78;6036519;23;20025;-78
2023/10/03 10:10:10;;;;;;;48.08;31.90;;;;;;;26.70;45.18;101789.22;6055273;23;20284;-80
2023/10/03 10:12:37;;;;;;;38.28;28.90;;;;;;;26.80;45.87;101796.94;6023348;23;20253;-80
2023/10/03 10:17:51;;;;;;;40.92;28.35;;;;;;;27.20;44.93;101808.50;6032702;23;20022;-79
2023/10/03 10:20:38;;;;;;;42.67;31.17;;;;;;;27.33;44.32;101809.47;6063839;23;20334;-78
2023/10/03 10:25:49;;;;;;;39.38;27.58;;;;;;;27.39;43.47;101749.44;6038811;23;20255;-78
2023/10/03 10:28:27;;;;;;;50.17;28.08;;;;;;;27.65;43.32;101777.59;6037567;23;20339;-79
2023/10/03 10:31:34;;;;;;;33.08;25.90;;;;;;;27.97;42.25;101802.97;6056090;23;20018;-78
2023/10/03 10:34:20;;;;;;;35.60;26.00;;;;;;;27.83;42.27;101747.66;6001505;23;20044;-80
2023/10/03 10:37:10;;;;;;;43.60;27.75;;;;;;;28.18;42.17;101777.16;6039073;23;20030;-79
2023/10/03 10:40:04;;;;;;;38.47;26.15;;;;;;;28.50;40.95;101799.75;6049564;23;20049;-79
2023/10/03 10:42:55;;;;;;;37.95;24.83;;;;;;;27.71;41.10;101673.03;6028507;23;20366;-79
2023/10/03 10:45:23;;;;;;;43.30;22.90;;;;;;;28.49;41.45;101795.31;6050387;23;20022;-78
2023/10/03 10:47:51;;;;;;;39.00;25.50;;;;;;;28.65;41.50;101793.06;6044053;23;20531;-80
2023/10/03 10:50:18;;;;;;;32.17;22.15;;;;;;;28.75;41.49;101785.16;6025537;23;20608;-79
2023/10/03 10:52:56;;;;;;;36.83;26.17;;;;;;;28.86;41.08;101778.94;6018957;23;20513;-79
2023/10/03 10:55:25;;;;;;;42.72;23.20;;;;;;;29.04;41.46;101780.78;6018483;23;20183;-79
2023/10/03 10:58:10;;;;;;;32.78;21.80;;;;;;;29.12;41.03;101776.91;5981992;23;20805;-80
2023/10/03 11:00:43;;;;;;;28.27;22.48;;;;;;;29.22;40.59;101765.44;6045336;23;20014;-80
2023/10/03 11:03:11;;;;;;;33.65;23.50;;;;;;;29.37;39.96;101768.56;6065083;23;20454;-79
2023/10/03 11:05:43;;;;;;;33.03;22.52;;;;;;;29.47;39.86;101768.84;6035463;23;20468;-80
2023/10/03 11:08:12;;;;;;;34.30;20.73;;;;;;;29.65;39.92;101758.88;6054715;23;20018;-82
2023/10/03 11:10:52;;;;;;;36.78;22.33;;;;;;;29.71;39.26;101747.00;6057655;23;20018;-81
2023/10/03 11:13:24;;;;;;;39.83;25.77;;;;;;;29.94;39.69;101760.72;6047183;23;20218;-82
2023/10/03 11:15:53;;;;;;;38.15;21.85;;;;;;;29.75;39.76;101704.41;6064976;23;20029;-79
2023/10/03 11:18:34;;;;;;;38.17;25.90;;;;;;;30.01;39.65;101753.22;6027460;23;20078;-82
2023/10/03 11:21:03;;;;;;;35.67;23.60;;;;;;;30.00;39.47;101745.22;6047074;23;20175;-82
2023/10/03 11:23:31;;;;;;;34.05;25.25;;;;;;;29.91;40.13;101743.94;6044468;23;20370;-82
2023/10/03 11:26:00;;;;;;;45.65;31.17;;;;;;;29.92;39.63;101743.69;6068284;23;20029;-82
2023/10/03 11:28:28;;;;;;;44.50;30.55;;;;;;;29.70;39.98;101750.81;6053749;23;20400;-80
2023/10/03 11:31:03;;;;;;;53.75;30.30;;;;;;;29.41;40.43;101731.47;6043409;23;20029;-82
2023/10/03 11:33:41;;;;;;;42.90;27.90;;;;;;;29.27;41.10;101740.94;6055862;23;20010;-81
2023/10/03 11:36:09;;;;;;;41.30;27.00;;;;;;;29.13;41.18;101718.47;6059262;23;20308;-81
2023/10/03 11:38:50;;;;;;;46.50;28.17;;;;;;;29.06;41.45;101713.09;6044891;23;20026;-81